Cala Panama — V2BC4 — position and weather

sailwx.info

Track history (hours):
 
Tides and Currents Weather Stations Pressure Air Temp Water Temp Dewpoint Dewpoint Depression Visibility Wind Speed Wind Dir Waves Ship Positions

Cala Panama

Last reported at 2017-Sep-25 09:26 UTC. Time now 2017-Sep-25 09:52 UTC.
Position N 45°33' E 013°44'.

Length 153.6 m; beam 25.3 m; draft 10.1 m.

Type: Ship (hazmat cat A). MMSI: 304490000.

Date/timePositionNaut miles runAvg speedWind from/ knotsBaromVisibWave heightAir tempDewpointWater temp
2017-Sep-25 09:26N 45°33' E 013°44'0 0.0
2017-Sep-25 08:59N 45°33' E 013°44'0 0.0
2017-Sep-25 08:29N 45°33' E 013°44'0 0.0
2017-Sep-25 07:59N 45°33' E 013°44'0 0.0
2017-Sep-25 07:29N 45°33' E 013°44'0 0.0
2017-Sep-25 06:59N 45°33' E 013°44'0 0.0
2017-Sep-25 06:29N 45°33' E 013°44'0 0.0
2017-Sep-25 05:59N 45°33' E 013°44'0 0.0
2017-Sep-25 05:23N 45°33' E 013°44'0 0.0
2017-Sep-25 04:50N 45°33' E 013°44'0 0.0
2017-Sep-25 04:29N 45°33' E 013°44'0 0.0
2017-Sep-25 03:59N 45°33' E 013°44'0 0.2
2017-Sep-25 03:30N 45°33' E 013°44'2 4.5
2017-Sep-25 03:00N 45°34' E 013°41'511.0
2017-Sep-25 02:30N 45°34' E 013°33'612.6
2017-Sep-25 02:00N 45°31' E 013°25'611.9
2017-Sep-25 01:30N 45°28' E 013°18'611.7
2017-Sep-25 01:00N 45°24' E 013°13'611.5
2017-Sep-25 00:30N 45°18' E 013°13'611.9
2017-Sep-25 00:00N 45°12' E 013°15'611.9
2017-Sep-24 23:30N 45°06' E 013°17'612.3
2017-Sep-24 23:00N 45°01' E 013°21'612.3
2017-Sep-24 22:30N 44°55' E 013°25'612.2
2017-Sep-24 22:00N 44°50' E 013°29'612.3
2017-Sep-24 21:30N 44°45' E 013°34'612.4
2017-Sep-24 21:00N 44°40' E 013°39'1212.3
2017-Sep-24 20:02N 44°29' E 013°47'012.4
2017-Sep-24 20:00N 44°29' E 013°47'612.6
2017-Sep-24 19:30N 44°24' E 013°52'912.6
2017-Sep-24 18:47N 44°16' E 013°59'412.6
2017-Sep-24 18:30N 44°13' E 014°01'1313.0
2017-Sep-24 17:31N 44°02' E 014°12'012.7
2017-Sep-24 17:29N 44°02' E 014°12'23213.1
2017-Sep-23 23:46N 41°07' E 017°40'1213.9
2017-Sep-23 22:55N 40°59' E 017°50'  
2017-Sep-19 23:04N 40°50' E 028°50'513.8
2017-Sep-19 22:43N 40°49' E 028°56'313.7
2017-Sep-19 22:30N 40°48' E 028°60'148 6.5
2017-Sep-18 23:38N 39°55' E 025°58'213.4
2017-Sep-18 23:30N 39°54' E 025°56'713.8
2017-Sep-18 22:59N 39°47' E 025°52'69 2.2
2017-Sep-17 15:24N 38°40' E 026°10'915.1
2017-Sep-17 14:48N 38°38' E 025°59'414.7
2017-Sep-17 14:30N 38°37' E 025°53'5814.1
2017-Sep-17 10:22N 38°05' E 024°51'3314.5
2017-Sep-17 08:07N 37°44' E 024°19'1014.4
2017-Sep-17 07:23N 37°36' E 024°11'1014.6
2017-Sep-17 06:44N 37°28' E 024°05'415.0
2017-Sep-17 06:29N 37°24' E 024°02'715.0
2017-Sep-17 06:00N 37°18' E 023°57'715.1
2017-Sep-17 05:30N 37°12' E 023°52'714.8
2017-Sep-17 05:00N 37°06' E 023°47'714.6
2017-Sep-17 04:30N 36°60' E 023°43'714.4
2017-Sep-17 04:00N 36°54' E 023°38'714.5
2017-Sep-17 03:30N 36°47' E 023°33'714.5
2017-Sep-17 03:00N 36°41' E 023°28'714.8
2017-Sep-17 02:30N 36°35' E 023°23'714.7
2017-Sep-17 02:01N 36°29' E 023°18'5713.3
2017-Sep-16 21:44N 36°30' E 022°07'415.5
2017-Sep-16 21:30N 36°32' E 022°03'2815.6
2017-Sep-16 19:43N 36°46' E 021°34'314.9
2017-Sep-16 19:30N 36°48' E 021°30'815.3
2017-Sep-16 19:01N 36°53' E 021°23'815.1
2017-Sep-16 18:30N 36°59' E 021°16'1314.9
2017-Sep-16 17:39N 37°07' E 021°05'215.5
2017-Sep-16 17:30N 37°09' E 021°02'815.6
2017-Sep-16 17:01N 37°14' E 020°56'816.0
2017-Sep-16 16:30N 37°21' E 020°49'815.5
2017-Sep-16 16:01N 37°26' E 020°43'815.3
2017-Sep-16 15:30N 37°33' E 020°38'815.8
2017-Sep-16 15:01N 37°39' E 020°32'815.5
2017-Sep-16 14:30N 37°46' E 020°27'815.3
2017-Sep-16 14:00N 37°52' E 020°22'9814.8
2017-Sep-16 07:24N 39°18' E 019°21'615.3
2017-Sep-16 07:00N 39°23' E 019°17'1015.0
2017-Sep-16 06:19N 39°32' E 019°11'514.4
2017-Sep-16 05:58N 39°37' E 019°07'814.3
2017-Sep-16 05:23N 39°44' E 019°02'3814.5
2017-Sep-16 02:48N 40°16' E 018°37'2814.7
2017-Sep-16 00:52N 40°39' E 018°14'614.9
2017-Sep-16 00:27N 40°43' E 018°08'614.7
2017-Sep-16 00:01N 40°48' E 018°02'814.9
2017-Sep-15 23:28N 40°54' E 017°55'  
Track history (hours):
 
Tides and Currents Weather Stations Pressure Air Temp Water Temp Dewpoint Dewpoint Depression Visibility Wind Speed Wind Dir Waves Ship Positions

Cala Panama

Last reported at 2017-Sep-25 09:26 UTC. Time now 2017-Sep-25 09:52 UTC.
Position N 45°33' E 013°44'.

Length 153.6 m; beam 25.3 m; draft 10.1 m.

Type: Ship (hazmat cat A). MMSI: 304490000.

Date/timePositionNaut miles runAvg speedWind from/ knotsBaromVisibWave heightAir tempDewpointWater temp
2017-Sep-25 09:26N 45°33' E 013°44'0 0.0
2017-Sep-25 08:59N 45°33' E 013°44'0 0.0
2017-Sep-25 08:29N 45°33' E 013°44'0 0.0
2017-Sep-25 07:59N 45°33' E 013°44'0 0.0
2017-Sep-25 07:29N 45°33' E 013°44'0 0.0
2017-Sep-25 06:59N 45°33' E 013°44'0 0.0
2017-Sep-25 06:29N 45°33' E 013°44'0 0.0
2017-Sep-25 05:59N 45°33' E 013°44'0 0.0
2017-Sep-25 05:23N 45°33' E 013°44'0 0.0
2017-Sep-25 04:50N 45°33' E 013°44'0 0.0
2017-Sep-25 04:29N 45°33' E 013°44'0 0.0
2017-Sep-25 03:59N 45°33' E 013°44'0 0.2
2017-Sep-25 03:30N 45°33' E 013°44'2 4.5
2017-Sep-25 03:00N 45°34' E 013°41'511.0
2017-Sep-25 02:30N 45°34' E 013°33'612.6
2017-Sep-25 02:00N 45°31' E 013°25'611.9
2017-Sep-25 01:30N 45°28' E 013°18'611.7
2017-Sep-25 01:00N 45°24' E 013°13'611.5
2017-Sep-25 00:30N 45°18' E 013°13'611.9
2017-Sep-25 00:00N 45°12' E 013°15'611.9
2017-Sep-24 23:30N 45°06' E 013°17'612.3
2017-Sep-24 23:00N 45°01' E 013°21'612.3
2017-Sep-24 22:30N 44°55' E 013°25'612.2
2017-Sep-24 22:00N 44°50' E 013°29'612.3
2017-Sep-24 21:30N 44°45' E 013°34'612.4
2017-Sep-24 21:00N 44°40' E 013°39'1212.3
2017-Sep-24 20:02N 44°29' E 013°47'012.4
2017-Sep-24 20:00N 44°29' E 013°47'612.6
2017-Sep-24 19:30N 44°24' E 013°52'912.6
2017-Sep-24 18:47N 44°16' E 013°59'412.6
2017-Sep-24 18:30N 44°13' E 014°01'1313.0
2017-Sep-24 17:31N 44°02' E 014°12'012.7
2017-Sep-24 17:29N 44°02' E 014°12'23213.1
2017-Sep-23 23:46N 41°07' E 017°40'1213.9
2017-Sep-23 22:55N 40°59' E 017°50'  
2017-Sep-19 23:04N 40°50' E 028°50'513.8
2017-Sep-19 22:43N 40°49' E 028°56'313.7
2017-Sep-19 22:30N 40°48' E 028°60'148 6.5
2017-Sep-18 23:38N 39°55' E 025°58'213.4
2017-Sep-18 23:30N 39°54' E 025°56'713.8
2017-Sep-18 22:59N 39°47' E 025°52'69 2.2
2017-Sep-17 15:24N 38°40' E 026°10'915.1
2017-Sep-17 14:48N 38°38' E 025°59'414.7
2017-Sep-17 14:30N 38°37' E 025°53'5814.1
2017-Sep-17 10:22N 38°05' E 024°51'3314.5
2017-Sep-17 08:07N 37°44' E 024°19'1014.4
2017-Sep-17 07:23N 37°36' E 024°11'1014.6
2017-Sep-17 06:44N 37°28' E 024°05'415.0
2017-Sep-17 06:29N 37°24' E 024°02'715.0
2017-Sep-17 06:00N 37°18' E 023°57'715.1
2017-Sep-17 05:30N 37°12' E 023°52'714.8
2017-Sep-17 05:00N 37°06' E 023°47'714.6
2017-Sep-17 04:30N 36°60' E 023°43'714.4
2017-Sep-17 04:00N 36°54' E 023°38'714.5
2017-Sep-17 03:30N 36°47' E 023°33'714.5
2017-Sep-17 03:00N 36°41' E 023°28'714.8
2017-Sep-17 02:30N 36°35' E 023°23'714.7
2017-Sep-17 02:01N 36°29' E 023°18'5713.3
2017-Sep-16 21:44N 36°30' E 022°07'415.5
2017-Sep-16 21:30N 36°32' E 022°03'2815.6
2017-Sep-16 19:43N 36°46' E 021°34'314.9
2017-Sep-16 19:30N 36°48' E 021°30'815.3
2017-Sep-16 19:01N 36°53' E 021°23'815.1
2017-Sep-16 18:30N 36°59' E 021°16'1314.9
2017-Sep-16 17:39N 37°07' E 021°05'215.5
2017-Sep-16 17:30N 37°09' E 021°02'815.6
2017-Sep-16 17:01N 37°14' E 020°56'816.0
2017-Sep-16 16:30N 37°21' E 020°49'815.5
2017-Sep-16 16:01N 37°26' E 020°43'815.3
2017-Sep-16 15:30N 37°33' E 020°38'815.8
2017-Sep-16 15:01N 37°39' E 020°32'815.5
2017-Sep-16 14:30N 37°46' E 020°27'815.3
2017-Sep-16 14:00N 37°52' E 020°22'9814.8
2017-Sep-16 07:24N 39°18' E 019°21'615.3
2017-Sep-16 07:00N 39°23' E 019°17'1015.0
2017-Sep-16 06:19N 39°32' E 019°11'514.4
2017-Sep-16 05:58N 39°37' E 019°07'814.3
2017-Sep-16 05:23N 39°44' E 019°02'3814.5
2017-Sep-16 02:48N 40°16' E 018°37'2814.7
2017-Sep-16 00:52N 40°39' E 018°14'614.9
2017-Sep-16 00:27N 40°43' E 018°08'614.7
2017-Sep-16 00:01N 40°48' E 018°02'814.9
2017-Sep-15 23:28N 40°54' E 017°55'  

Dump ship's entire track history